Time;durP1;ratioP1;P1;durP2;ratioP2;P2;SDS_P1;SDS_P2;PMS_P1;PMS_P2;Temp;Humidity;BMP_temperature;BMP_pressure;BME280_temperature;BME280_humidity;BME280_pressure;Samples;Min_cycle;Max_cycle;Signal;HPM_P1;HPM_P2
2022/01/18 00:02:26;;;;;;;28.23;3.28;;;4.90;99.90;;;;;;5039963;28;20115;-62
2022/01/18 00:04:51;;;;;;;23.77;3.30;;;4.80;99.90;;;;;;5041046;28;20041;-62
2022/01/18 00:07:17;;;;;;;22.92;5.20;;;4.80;99.90;;;;;;5041002;28;20455;-63
2022/01/18 00:09:43;;;;;;;26.27;3.50;;;4.80;99.90;;;;;;5040004;28;20033;-62
2022/01/18 00:15:16;;;;;;;27.52;3.95;;;4.80;99.90;;;;;;5042405;28;20155;-62
2022/01/18 00:17:51;;;;;;;23.17;3.13;;;4.70;99.90;;;;;;5037829;28;20128;-62
2022/01/18 00:20:22;;;;;;;25.55;3.72;;;4.70;99.90;;;;;;5040122;28;20033;-61
2022/01/18 00:22:48;;;;;;;30.73;4.25;;;4.70;99.90;;;;;;5041867;28;20136;-62
2022/01/18 00:25:14;;;;;;;25.88;3.40;;;4.70;99.90;;;;;;5040877;28;20037;-62
2022/01/18 00:27:39;;;;;;;20.38;4.55;;;4.70;99.90;;;;;;5039310;28;20068;-62
2022/01/18 00:30:29;;;;;;;25.65;3.65;;;4.60;99.90;;;;;;5042513;28;20489;-62
2022/01/18 00:33:06;;;;;;;20.27;2.97;;;4.60;99.90;;;;;;5041445;28;20647;-61
2022/01/18 00:35:34;;;;;;;18.05;2.75;;;4.60;99.90;;;;;;5035430;28;20056;-62
2022/01/18 00:38:00;;;;;;;23.30;2.92;;;4.50;99.90;;;;;;5042930;28;20032;-62
2022/01/18 00:40:26;;;;;;;20.73;2.67;;;4.40;99.90;;;;;;5038754;28;20029;-63
2022/01/18 00:42:52;;;;;;;31.17;4.60;;;4.40;99.90;;;;;;5043814;28;20040;-62
2022/01/18 00:45:17;;;;;;;30.77;3.35;;;4.40;99.90;;;;;;5039863;28;20400;-64
2022/01/18 00:47:43;;;;;;;23.92;3.38;;;4.40;99.90;;;;;;5040391;28;20048;-62
2022/01/18 00:50:09;;;;;;;18.92;3.00;;;4.50;99.90;;;;;;5041265;28;20021;-62
2022/01/18 00:52:40;;;;;;;14.40;2.58;;;4.40;99.90;;;;;;5039127;28;20033;-62
2022/01/18 00:55:06;;;;;;;22.98;3.75;;;4.40;99.90;;;;;;5041984;28;20043;-62
2022/01/18 00:57:32;;;;;;;13.90;2.92;;;4.40;99.90;;;;;;5038267;28;20021;-64
2022/01/18 00:59:58;;;;;;;14.63;3.05;;;4.40;99.90;;;;;;5037289;28;20036;-62
2022/01/18 01:02:24;;;;;;;16.23;3.17;;;4.50;99.90;;;;;;5041318;28;20515;-62
2022/01/18 01:04:49;;;;;;;12.55;2.65;;;4.40;99.90;;;;;;5039400;28;20037;-62
2022/01/18 01:07:20;;;;;;;21.38;3.28;;;4.40;99.90;;;;;;5040394;28;20149;-62
2022/01/18 01:09:46;;;;;;;16.42;2.17;;;4.40;99.90;;;;;;5038925;28;20033;-62
2022/01/18 01:12:14;;;;;;;9.52;2.05;;;4.40;99.90;;;;;;5036593;28;20033;-63
2022/01/18 01:14:41;;;;;;;15.88;2.47;;;4.30;99.90;;;;;;5039399;28;20146;-61
2022/01/18 01:32:11;;;;;;;12.45;2.28;;;4.30;99.90;;;;;;5039463;28;20045;-61
2022/01/18 01:45:02;;;;;;;11.30;2.47;;;4.20;99.90;;;;;;5038044;28;20086;-62
2022/01/18 01:46:54;;;;;;;10.70;1.80;;;4.10;99.90;;;;;;5028923;28;20029;-62
2022/01/18 01:49:23;;;;;;;16.23;1.90;;;4.00;99.90;;;;;;5041868;28;20033;-62
2022/01/18 01:51:49;;;;;;;10.95;2.63;;;4.00;99.90;;;;;;5040448;28;20500;-62
2022/01/18 01:54:15;;;;;;;8.90;1.75;;;3.90;99.90;;;;;;5038323;28;20044;-61
2022/01/18 01:56:41;;;;;;;9.65;2.22;;;3.90;99.90;;;;;;5039813;28;20044;-63
2022/01/18 01:59:06;;;;;;;13.05;2.00;;;3.90;99.90;;;;;;5039588;28;20029;-62
2022/01/18 02:01:40;;;;;;;7.10;2.15;;;3.90;99.90;;;;;;5037859;28;20114;-62
2022/01/18 02:04:05;;;;;;;6.55;2.22;;;3.90;99.90;;;;;;5039973;28;20086;-63
2022/01/18 02:06:31;;;;;;;11.10;2.00;;;3.90;99.90;;;;;;5037831;28;20580;-63
2022/01/18 02:08:56;;;;;;;18.15;2.47;;;3.90;99.90;;;;;;5041096;28;20045;-62
2022/01/18 02:11:22;;;;;;;17.60;2.63;;;3.90;99.90;;;;;;5032964;28;20524;-63
2022/01/18 02:13:49;;;;;;;7.00;1.75;;;3.80;99.90;;;;;;5037931;28;20681;-63
2022/01/18 02:21:45;;;;;;;8.45;2.00;;;3.80;99.90;;;;;;5033964;28;20033;-62
2022/01/18 02:21:48;;;;;;;13.77;1.98;;;3.70;99.90;;;;;;5036255;28;20397;-62
2022/01/18 02:24:17;;;;;;;6.38;1.88;;;3.70;99.90;;;;;;5036360;28;20029;-62
2022/01/18 02:26:43;;;;;;;9.05;2.05;;;3.60;99.90;;;;;;5039847;28;20124;-62
2022/01/18 02:29:10;;;;;;;8.43;2.33;;;3.60;99.90;;;;;;5039315;28;20124;-63
2022/01/18 02:31:36;;;;;;;13.32;2.45;;;3.60;99.90;;;;;;5041094;28;20405;-62
2022/01/18 02:34:16;;;;;;;6.55;1.98;;;3.60;99.90;;;;;;5036485;28;20063;-61
2022/01/18 02:36:42;;;;;;;10.30;2.22;;;3.60;99.90;;;;;;5039394;28;20087;-62
2022/01/18 02:39:08;;;;;;;9.18;2.70;;;3.60;99.90;;;;;;5039016;28;20116;-61
2022/01/18 02:41:35;;;;;;;12.57;2.60;;;3.50;99.90;;;;;;5039107;28;20180;-61
2022/01/18 02:44:07;;;;;;;13.43;2.72;;;3.60;99.90;;;;;;5039280;28;20048;-62
2022/01/18 02:46:33;;;;;;;12.60;2.97;;;3.60;99.90;;;;;;5036472;28;20056;-62
2022/01/18 02:49:00;;;;;;;14.23;2.20;;;3.60;99.90;;;;;;5038829;28;20190;-62
2022/01/18 02:51:27;;;;;;;7.55;2.63;;;3.60;99.90;;;;;;5036865;28;20037;-63
2022/01/18 02:53:55;;;;;;;15.60;2.33;;;3.60;99.90;;;;;;5040587;28;20035;-62
2022/01/18 02:56:22;;;;;;;9.07;2.40;;;3.60;99.90;;;;;;5035760;28;20033;-61
2022/01/18 02:58:48;;;;;;;9.52;2.63;;;3.60;99.90;;;;;;5040361;28;20163;-62
2022/01/18 03:03:58;;;;;;;9.82;2.45;;;3.60;99.90;;;;;;5034858;28;20049;-62
2022/01/18 03:06:23;;;;;;;8.80;2.50;;;3.60;99.90;;;;;;5036374;28;20029;-61
2022/01/18 03:08:49;;;;;;;14.50;3.05;;;3.60;99.90;;;;;;5040716;28;20033;-62
2022/01/18 03:11:14;;;;;;;18.13;2.70;;;3.60;99.90;;;;;;5037034;28;20038;-62
2022/01/18 03:13:40;;;;;;;5.53;1.42;;;3.50;99.90;;;;;;5042754;28;20042;-61
2022/01/18 03:16:06;;;;;;;8.35;1.65;;;3.60;99.90;;;;;;5042384;28;20045;-61
2022/01/18 03:18:31;;;;;;;10.07;1.63;;;3.60;99.90;;;;;;5040164;28;20041;-61
2022/01/18 03:20:57;;;;;;;9.02;1.30;;;3.60;99.90;;;;;;5043499;28;20052;-61
2022/01/18 03:23:23;;;;;;;10.63;1.50;;;3.60;99.90;;;;;;5040178;28;20485;-62
2022/01/18 03:28:17;;;;;;;12.18;2.17;;;3.70;99.90;;;;;;5035993;28;20029;-63
2022/01/18 03:30:47;;;;;;;8.20;1.35;;;3.70;99.90;;;;;;5043093;28;20469;-62
2022/01/18 03:33:15;;;;;;;11.80;1.73;;;3.70;99.90;;;;;;5040583;28;20041;-64
2022/01/18 03:35:42;;;;;;;5.28;1.20;;;3.70;99.90;;;;;;5040205;28;20068;-63
2022/01/18 03:38:09;;;;;;;6.40;1.30;;;3.70;99.90;;;;;;5042760;28;20041;-63
2022/01/18 03:40:35;;;;;;;17.33;1.60;;;3.70;99.90;;;;;;5041272;28;20044;-63
2022/01/18 03:43:02;;;;;;;13.30;2.00;;;3.70;99.90;;;;;;5044274;28;20029;-62
2022/01/18 03:45:39;;;;;;;10.65;1.40;;;3.70;99.90;;;;;;5038962;28;20113;-63
2022/01/18 03:48:08;;;;;;;10.32;1.80;;;3.70;99.90;;;;;;5043010;28;20029;-62
2022/01/18 03:50:33;;;;;;;14.80;1.70;;;3.70;99.90;;;;;;5039852;28;20069;-62
2022/01/18 03:52:59;;;;;;;12.32;1.63;;;3.70;99.90;;;;;;5040771;28;20104;-61
2022/01/18 03:55:25;;;;;;;17.80;2.30;;;3.70;99.90;;;;;;5040384;28;20030;-61
2022/01/18 03:57:51;;;;;;;7.93;1.67;;;3.70;99.90;;;;;;5043981;28;20025;-62
2022/01/18 04:00:27;;;;;;;5.63;1.70;;;3.80;99.90;;;;;;5033930;28;20413;-62
2022/01/18 04:02:54;;;;;;;10.82;1.77;;;3.80;99.90;;;;;;5037247;28;20060;-63
2022/01/18 04:05:20;;;;;;;7.63;1.70;;;3.80;99.90;;;;;;5039179;28;20067;-61
2022/01/18 04:07:46;;;;;;;10.93;2.08;;;3.80;99.90;;;;;;5039583;28;20687;-61
2022/01/18 04:10:12;;;;;;;4.20;1.20;;;3.70;99.90;;;;;;5039928;28;20064;-61
2022/01/18 04:12:39;;;;;;;14.60;1.70;;;3.70;99.90;;;;;;5042095;28;20061;-62
2022/01/18 04:15:07;;;;;;;7.82;1.77;;;3.80;99.90;;;;;;5043323;28;20496;-66
2022/01/18 04:17:50;;;;;;;15.23;1.88;;;3.70;99.90;;;;;;5037449;28;20045;-61
2022/01/18 04:26:01;;;;;;;7.30;1.33;;;3.80;99.90;;;;;;5035404;28;20040;-61
2022/01/18 04:28:39;;;;;;;13.80;1.42;;;3.80;99.90;;;;;;5037511;28;20450;-62
2022/01/18 04:31:06;;;;;;;5.57;1.98;;;3.70;99.90;;;;;;5040448;28;20033;-61
2022/01/18 04:33:32;;;;;;;8.82;1.67;;;3.80;99.90;;;;;;5036671;28;20072;-61
2022/01/18 04:35:58;;;;;;;23.92;2.15;;;3.70;99.90;;;;;;5042400;28;20029;-62
2022/01/18 04:38:24;;;;;;;7.85;1.60;;;3.70;99.90;;;;;;5038167;28;20029;-62
2022/01/18 04:40:49;;;;;;;9.90;1.63;;;3.70;99.90;;;;;;5041102;28;20029;-61
2022/01/18 04:43:37;;;;;;;25.23;2.53;;;3.70;99.90;;;;;;5038553;28;20036;-61
2022/01/18 04:48:47;;;;;;;9.68;1.42;;;3.70;99.90;;;;;;5035413;28;20106;-61
2022/01/18 04:51:12;;;;;;;8.35;1.33;;;3.70;99.90;;;;;;5034295;28;20088;-66
2022/01/18 04:53:47;;;;;;;12.15;1.35;;;3.70;99.90;;;;;;5046209;28;20048;-61
2022/01/18 04:56:16;;;;;;;9.00;1.23;;;3.60;99.90;;;;;;5042203;28;20037;-63
2022/01/18 04:58:41;;;;;;;11.80;1.35;;;3.60;99.90;;;;;;5039141;28;20039;-61
2022/01/18 05:01:08;;;;;;;13.20;1.50;;;3.60;99.90;;;;;;5041257;28;20124;-61
2022/01/18 05:03:34;;;;;;;11.02;1.60;;;3.50;99.90;;;;;;5039698;28;20047;-61
2022/01/18 05:06:08;;;;;;;10.30;1.40;;;3.50;99.90;;;;;;5042823;28;20484;-62
2022/01/18 05:08:34;;;;;;;8.48;1.48;;;3.50;99.90;;;;;;5039095;28;20025;-61
2022/01/18 05:11:00;;;;;;;12.95;1.77;;;3.50;99.90;;;;;;5040670;28;20048;-61
2022/01/18 05:22:55;;;;;;;14.82;1.33;;;3.30;99.90;;;;;;5036035;28;20024;-61
2022/01/18 05:24:28;;;;;;;15.27;1.45;;;3.30;99.90;;;;;;5041241;28;20063;-62
2022/01/18 05:26:54;;;;;;;22.30;1.60;;;3.20;99.90;;;;;;5040925;28;20029;-61
2022/01/18 05:29:21;;;;;;;15.20;1.00;;;3.20;99.90;;;;;;5040791;28;20025;-62
2022/01/18 05:31:47;;;;;;;19.95;2.10;;;3.20;99.90;;;;;;5035887;28;20473;-61
2022/01/18 05:34:13;;;;;;;9.45;1.42;;;3.30;99.90;;;;;;5017053;28;20030;-61
2022/01/18 05:36:39;;;;;;;4.40;1.20;;;3.30;99.90;;;;;;5028721;28;20045;-61
2022/01/18 05:39:06;;;;;;;13.15;2.35;;;3.30;99.90;;;;;;5030541;28;20036;-62
2022/01/18 05:41:32;;;;;;;11.30;2.20;;;3.30;99.90;;;;;;5031835;28;20037;-61
2022/01/18 05:43:57;;;;;;;7.38;1.40;;;3.40;99.90;;;;;;5037902;28;20056;-61
2022/01/18 05:46:24;;;;;;;14.82;1.27;;;3.40;99.90;;;;;;5030753;28;20454;-61
2022/01/18 05:48:50;;;;;;;10.48;1.50;;;3.40;99.90;;;;;;5035145;28;20057;-61
2022/01/18 05:51:16;;;;;;;10.10;1.45;;;3.40;99.90;;;;;;5034314;28;20067;-62
2022/01/18 05:53:41;;;;;;;6.50;1.20;;;3.50;99.90;;;;;;5028137;28;20120;-61
2022/01/18 05:56:11;;;;;;;4.68;1.50;;;3.50;99.90;;;;;;5028197;28;20032;-62
2022/01/18 05:58:44;;;;;;;11.00;1.17;;;3.50;99.90;;;;;;5032006;28;20404;-62
2022/01/18 06:01:21;;;;;;;2.15;1.30;;;3.60;99.90;;;;;;5037934;28;20119;-61
2022/01/18 06:09:09;;;;;;;4.88;1.35;;;3.60;99.90;;;;;;5039999;28;20114;-62
2022/01/18 06:11:35;;;;;;;7.32;1.52;;;3.60;99.90;;;;;;5032952;28;20076;-61
2022/01/18 06:14:01;;;;;;;6.45;2.00;;;3.60;99.90;;;;;;5033441;28;20094;-62
2022/01/18 06:16:27;;;;;;;4.00;1.63;;;3.60;99.90;;;;;;5037168;28;20116;-62
2022/01/18 06:18:53;;;;;;;7.60;1.73;;;3.60;99.90;;;;;;5035821;28;20417;-61
2022/01/18 06:21:20;;;;;;;9.60;2.17;;;3.60;99.90;;;;;;5034537;28;20056;-62
2022/01/18 06:23:46;;;;;;;4.93;1.77;;;3.60;99.90;;;;;;5033522;28;20060;-60
2022/01/18 06:26:15;;;;;;;8.68;2.20;;;3.60;99.90;;;;;;5031715;28;20063;-62
2022/01/18 06:28:44;;;;;;;10.82;1.60;;;3.50;99.90;;;;;;5029485;28;20033;-62
2022/01/18 06:31:10;;;;;;;5.28;2.30;;;3.60;99.90;;;;;;5034613;28;20039;-61
2022/01/18 06:33:36;;;;;;;9.52;2.17;;;3.50;99.90;;;;;;5028901;28;20034;-61
2022/01/18 06:36:02;;;;;;;4.88;2.10;;;3.60;99.90;;;;;;5032940;28;20095;-62
2022/01/18 06:38:27;;;;;;;8.43;2.28;;;3.60;99.90;;;;;;5032701;28;20541;-61
2022/01/18 06:40:53;;;;;;;6.47;2.33;;;3.60;99.90;;;;;;5034775;28;20037;-61
2022/01/18 06:43:19;;;;;;;10.98;2.42;;;3.60;99.90;;;;;;5028928;28;20645;-62
2022/01/18 06:45:45;;;;;;;7.00;2.00;;;3.60;99.90;;;;;;5036724;28;20029;-62
2022/01/18 06:48:10;;;;;;;14.88;2.75;;;3.60;99.90;;;;;;5034799;28;20594;-61
2022/01/18 06:50:36;;;;;;;7.20;2.15;;;3.60;99.90;;;;;;5037756;28;20498;-62
2022/01/18 06:53:02;;;;;;;15.05;2.90;;;3.60;99.90;;;;;;5032976;28;20032;-61
2022/01/18 06:55:28;;;;;;;12.63;2.65;;;3.60;99.90;;;;;;5041631;28;20667;-61
2022/01/18 06:57:56;;;;;;;10.35;2.35;;;3.60;99.90;;;;;;5039563;28;20037;-62
2022/01/18 07:00:21;;;;;;;14.02;2.55;;;3.60;99.90;;;;;;5036469;28;20446;-62
2022/01/18 07:02:47;;;;;;;20.60;3.25;;;3.60;99.90;;;;;;5038147;28;20077;-62
2022/01/18 07:05:13;;;;;;;15.63;3.17;;;3.60;99.90;;;;;;5040096;28;20030;-62
2022/01/18 07:07:40;;;;;;;6.05;2.22;;;3.60;99.90;;;;;;5037971;28;20937;-63
2022/01/18 07:10:06;;;;;;;9.88;2.53;;;3.70;99.90;;;;;;5032964;28;20112;-62
2022/01/18 07:12:34;;;;;;;7.45;2.20;;;3.70;99.90;;;;;;5039592;28;20024;-62
2022/01/18 07:15:01;;;;;;;6.78;2.53;;;3.70;99.90;;;;;;5035941;28;20049;-63
2022/01/18 07:17:26;;;;;;;4.28;1.88;;;3.80;99.90;;;;;;5036571;28;20416;-61
2022/01/18 07:19:52;;;;;;;17.58;3.58;;;3.70;99.90;;;;;;5040653;28;20059;-63
2022/01/18 07:22:17;;;;;;;7.20;2.08;;;3.70;99.90;;;;;;5037221;28;20435;-61
2022/01/18 07:24:43;;;;;;;9.98;2.08;;;3.70;99.90;;;;;;5033795;28;20040;-61
2022/01/18 07:27:11;;;;;;;11.27;2.40;;;3.70;99.90;;;;;;5039609;28;20029;-60
2022/01/18 07:29:38;;;;;;;13.57;2.28;;;3.70;99.90;;;;;;5037731;28;20045;-61
2022/01/18 07:32:04;;;;;;;5.75;1.90;;;3.70;99.90;;;;;;5037324;28;20025;-61
2022/01/18 07:34:32;;;;;;;4.38;1.48;;;3.70;99.90;;;;;;5033954;28;20040;-61
2022/01/18 07:36:58;;;;;;;3.38;1.60;;;3.80;99.90;;;;;;5041196;28;20123;-61
2022/01/18 07:39:24;;;;;;;6.93;2.17;;;3.80;99.90;;;;;;5038821;28;20413;-61
2022/01/18 07:41:49;;;;;;;4.00;1.80;;;3.80;99.90;;;;;;5035490;28;20489;-62
2022/01/18 07:44:15;;;;;;;5.45;1.90;;;3.80;99.90;;;;;;5040302;28;20447;-62
2022/01/18 07:46:41;;;;;;;4.00;2.10;;;3.80;99.90;;;;;;5034059;28;20032;-62
2022/01/18 07:49:06;;;;;;;7.88;2.60;;;3.80;99.90;;;;;;5037561;28;20554;-62
2022/01/18 07:51:32;;;;;;;10.15;2.05;;;3.70;99.90;;;;;;5040942;28;20044;-61
2022/01/18 07:53:57;;;;;;;5.55;1.77;;;3.70;99.90;;;;;;5037161;28;20118;-61
2022/01/18 07:56:23;;;;;;;3.42;1.73;;;3.70;99.90;;;;;;5037165;28;20042;-61
2022/01/18 07:58:48;;;;;;;5.82;2.00;;;3.70;99.90;;;;;;5037694;28;20087;-62
2022/01/18 08:01:14;;;;;;;3.95;1.60;;;3.70;99.90;;;;;;5034045;28;20051;-62
2022/01/18 08:03:39;;;;;;;4.35;1.70;;;3.70;99.90;;;;;;5035476;28;20029;-62
2022/01/18 08:06:05;;;;;;;3.53;1.30;;;3.70;99.90;;;;;;5035961;28;20041;-62
2022/01/18 08:08:32;;;;;;;3.42;1.58;;;3.70;99.90;;;;;;5034066;28;20526;-62
2022/01/18 08:10:58;;;;;;;4.03;1.50;;;3.80;99.90;;;;;;5040116;28;20041;-61
2022/01/18 08:13:28;;;;;;;4.13;1.83;;;3.80;99.90;;;;;;5033851;28;20090;-62
2022/01/18 08:16:10;;;;;;;2.67;1.30;;;3.80;99.90;;;;;;5037795;28;20029;-61
2022/01/18 08:18:36;;;;;;;3.72;1.45;;;3.80;99.90;;;;;;5037728;28;20025;-61
2022/01/18 08:21:01;;;;;;;2.22;1.40;;;3.80;99.90;;;;;;5038418;28;20607;-61
2022/01/18 08:23:27;;;;;;;2.90;1.25;;;3.80;99.90;;;;;;5034307;28;20046;-62
2022/01/18 08:25:52;;;;;;;5.35;1.38;;;3.90;99.90;;;;;;5035285;28;20040;-62
2022/01/18 08:28:18;;;;;;;2.25;0.95;;;3.90;99.90;;;;;;5037872;28;20037;-61
2022/01/18 08:30:44;;;;;;;3.40;1.30;;;3.90;99.90;;;;;;5035334;28;20094;-61
2022/01/18 08:33:09;;;;;;;2.33;1.10;;;4.00;99.90;;;;;;5033638;28;20036;-62
2022/01/18 08:35:37;;;;;;;4.60;1.50;;;4.00;99.90;;;;;;5041780;28;20033;-62
2022/01/18 08:38:03;;;;;;;2.58;1.10;;;4.00;99.90;;;;;;5034660;28;20036;-61
2022/01/18 08:40:29;;;;;;;4.70;1.10;;;4.00;99.90;;;;;;5037902;28;20573;-62
2022/01/18 08:42:54;;;;;;;6.57;1.00;;;4.00;99.90;;;;;;5037362;28;20036;-62
2022/01/18 08:45:20;;;;;;;3.25;1.42;;;4.00;99.90;;;;;;5041258;28;20087;-62
2022/01/18 08:47:46;;;;;;;6.63;1.40;;;4.10;99.90;;;;;;5038538;28;20041;-61
2022/01/18 08:50:11;;;;;;;6.00;1.23;;;4.10;99.90;;;;;;5037227;28;20069;-62
2022/01/18 08:52:38;;;;;;;2.63;1.05;;;4.10;99.90;;;;;;5040161;28;20036;-62
2022/01/18 08:55:04;;;;;;;6.38;1.20;;;4.20;99.90;;;;;;5037552;28;20219;-62
2022/01/18 08:57:30;;;;;;;5.95;1.92;;;4.10;99.90;;;;;;5036447;28;20029;-62
2022/01/18 08:59:55;;;;;;;5.75;1.40;;;4.20;99.90;;;;;;5042005;28;20043;-62
2022/01/18 09:02:21;;;;;;;3.20;1.15;;;4.30;99.90;;;;;;5039134;28;20679;-62
2022/01/18 09:04:46;;;;;;;2.72;0.80;;;4.30;99.90;;;;;;5038395;28;20060;-62
2022/01/18 09:07:12;;;;;;;6.03;1.30;;;4.40;99.90;;;;;;5034286;28;20659;-61
2022/01/18 09:09:40;;;;;;;7.20;1.38;;;4.40;99.90;;;;;;5039187;28;20056;-62
2022/01/18 09:12:08;;;;;;;2.90;1.25;;;4.50;99.90;;;;;;5032681;28;20037;-62
2022/01/18 09:14:34;;;;;;;8.57;1.05;;;4.50;99.90;;;;;;5036438;28;20061;-62
2022/01/18 09:17:00;;;;;;;3.83;1.33;;;4.50;99.90;;;;;;5038715;28;20123;-62
2022/01/18 09:19:26;;;;;;;5.97;1.13;;;4.60;99.90;;;;;;5037208;28;20447;-61
2022/01/18 09:21:51;;;;;;;5.80;1.10;;;4.60;99.90;;;;;;5034438;28;20109;-62
2022/01/18 09:24:17;;;;;;;8.85;1.15;;;4.70;99.90;;;;;;5037869;28;20371;-62
2022/01/18 09:26:43;;;;;;;4.70;0.57;;;4.70;99.90;;;;;;5038450;28;20033;-62
2022/01/18 09:29:10;;;;;;;5.05;0.90;;;4.80;99.90;;;;;;5040374;28;20040;-61
2022/01/18 09:31:37;;;;;;;2.97;0.57;;;4.80;99.90;;;;;;5034267;28;20049;-61
2022/01/18 09:34:04;;;;;;;3.40;0.82;;;4.80;99.90;;;;;;5036950;28;20033;-62
2022/01/18 09:36:30;;;;;;;5.00;1.13;;;4.80;99.90;;;;;;5036347;28;20045;-62
2022/01/18 09:38:56;;;;;;;6.78;0.70;;;4.90;99.90;;;;;;5038203;28;20020;-61
2022/01/18 09:41:27;;;;;;;5.53;0.75;;;4.90;99.90;;;;;;5031427;28;20038;-62
2022/01/18 09:43:53;;;;;;;5.90;0.80;;;4.90;99.90;;;;;;5038275;28;20029;-62
2022/01/18 09:46:19;;;;;;;3.42;1.33;;;4.90;99.90;;;;;;5036785;28;20164;-62
2022/01/18 09:48:45;;;;;;;17.35;1.65;;;5.00;99.90;;;;;;5036674;28;20772;-61
2022/01/18 09:51:11;;;;;;;9.27;1.83;;;5.10;99.90;;;;;;5032346;28;20037;-61
2022/01/18 09:53:37;;;;;;;15.30;1.90;;;5.10;99.90;;;;;;5040900;28;20404;-62
2022/01/18 09:56:02;;;;;;;5.38;2.00;;;5.10;99.90;;;;;;5035128;28;20108;-61
2022/01/18 09:58:29;;;;;;;3.67;1.30;;;5.20;99.90;;;;;;5034961;28;20053;-61
2022/01/18 10:00:55;;;;;;;9.23;2.20;;;5.20;99.90;;;;;;5032160;28;20130;-62
2022/01/18 10:03:35;;;;;;;7.55;1.88;;;5.20;99.90;;;;;;5036792;28;20405;-62
2022/01/18 10:06:03;;;;;;;9.70;2.67;;;5.20;99.90;;;;;;5032942;28;20037;-61
2022/01/18 10:08:28;;;;;;;14.98;2.55;;;5.20;99.90;;;;;;5030656;28;20224;-62
2022/01/18 10:10:57;;;;;;;20.73;2.58;;;5.20;99.90;;;;;;5039052;28;20722;-62
2022/01/18 10:13:25;;;;;;;37.08;2.53;;;5.20;99.90;;;;;;5034235;28;20397;-62
2022/01/18 10:16:01;;;;;;;23.75;2.22;;;5.20;99.90;;;;;;5034644;28;20025;-63
2022/01/18 10:18:48;;;;;;;35.28;3.35;;;5.30;99.90;;;;;;5032804;28;20032;-62
2022/01/18 10:21:40;;;;;;;48.03;3.78;;;5.30;99.90;;;;;;5032691;28;20025;-61
2022/01/18 10:24:16;;;;;;;13.48;1.50;;;5.30;99.90;;;;;;5033720;28;20474;-61
2022/01/18 10:26:43;;;;;;;27.17;2.35;;;5.30;99.90;;;;;;5034363;28;20087;-62
2022/01/18 10:29:11;;;;;;;71.97;4.65;;;5.30;99.90;;;;;;5031595;28;20029;-61
2022/01/18 10:31:43;;;;;;;28.60;2.50;;;5.40;99.90;;;;;;5038114;28;20388;-61
2022/01/18 10:37:15;;;;;;;8.15;1.75;;;5.40;99.90;;;;;;5010690;28;20811;-62
2022/01/18 10:39:50;;;;;;;28.88;3.08;;;5.40;99.90;;;;;;5033075;28;20576;-63
2022/01/18 10:42:23;;;;;;;25.15;2.45;;;5.40;99.90;;;;;;5033227;28;20512;-62
2022/01/18 10:45:39;;;;;;;34.42;3.38;;;5.50;99.90;;;;;;5034809;28;20029;-63
2022/01/18 10:48:14;;;;;;;34.10;2.55;;;5.50;99.90;;;;;;5033143;28;20064;-61
2022/01/18 10:50:43;;;;;;;49.25;3.60;;;5.50;99.90;;;;;;5033937;28;20393;-61
2022/01/18 10:53:18;;;;;;;19.17;2.47;;;5.60;99.90;;;;;;5032961;28;20029;-62
2022/01/18 10:55:46;;;;;;;28.70;2.33;;;5.60;99.90;;;;;;5037017;28;20037;-61
2022/01/18 10:58:17;;;;;;;21.80;2.83;;;5.60;99.90;;;;;;5033509;28;20029;-61
2022/01/18 11:00:42;;;;;;;;;;;5.70;99.90;;;;;;5037758;28;20065;-61
2022/01/18 11:03:09;;;;;;;12.65;2.60;;;5.60;99.90;;;;;;5035410;28;19971;-62
2022/01/18 11:05:38;;;;;;;16.48;3.45;;;5.70;99.90;;;;;;5037943;28;20034;-61
2022/01/18 11:08:06;;;;;;;16.02;4.28;;;5.80;99.90;;;;;;5034176;28;20034;-61
2022/01/18 11:10:40;;;;;;;23.00;5.38;;;5.80;99.90;;;;;;5033183;28;20026;-61
2022/01/18 11:13:11;;;;;;;32.05;4.72;;;5.80;99.90;;;;;;5030213;28;20025;-62
2022/01/18 11:15:42;;;;;;;14.93;5.32;;;5.80;99.90;;;;;;5035536;28;20525;-62
2022/01/18 11:18:24;;;;;;;31.63;5.70;;;5.90;99.90;;;;;;5034275;28;20044;-61
2022/01/18 11:20:50;;;;;;;20.50;6.05;;;5.90;99.90;;;;;;5026813;28;20053;-61
2022/01/18 11:23:17;;;;;;;20.27;5.38;;;5.90;99.90;;;;;;5034249;28;20075;-62
2022/01/18 11:25:44;;;;;;;26.42;5.90;;;6.00;99.90;;;;;;5037405;28;20034;-61
2022/01/18 11:28:12;;;;;;;29.83;6.50;;;6.00;99.90;;;;;;5033344;28;20033;-61
2022/01/18 11:30:40;;;;;;;28.10;7.28;;;6.10;99.90;;;;;;5029364;28;20129;-62
2022/01/18 11:33:10;;;;;;;19.95;5.82;;;6.10;99.90;;;;;;5034864;28;20040;-62
2022/01/18 11:35:48;;;;;;;28.65;6.45;;;6.10;99.90;;;;;;5040083;28;20033;-61
2022/01/18 11:38:22;;;;;;;27.00;7.75;;;6.10;99.90;;;;;;5035838;28;20029;-61
2022/01/18 11:40:53;;;;;;;25.48;7.03;;;6.20;99.90;;;;;;5032509;28;20042;-62
2022/01/18 11:43:39;;;;;;;30.73;8.65;;;6.20;99.90;;;;;;5035920;28;20060;-61
2022/01/18 11:46:36;;;;;;;26.48;7.50;;;6.20;99.90;;;;;;5037704;28;20037;-62
2022/01/18 11:49:06;;;;;;;38.15;7.68;;;6.20;99.90;;;;;;5038327;28;20021;-61
2022/01/18 11:51:34;;;;;;;;;;;6.20;99.90;;;;;;5031315;28;20060;-62
2022/01/18 11:54:19;;;;;;;26.98;7.55;;;6.20;99.90;;;;;;5033277;28;20321;-62
2022/01/18 11:56:46;;;;;;;25.27;7.22;;;6.20;99.90;;;;;;5040048;28;20509;-62
2022/01/18 11:59:26;;;;;;;29.52;8.00;;;6.20;99.90;;;;;;5037586;28;20087;-62
2022/01/18 12:02:05;;;;;;;30.02;6.63;;;6.10;99.90;;;;;;5037577;28;20029;-62
2022/01/18 12:04:48;;;;;;;26.92;8.82;;;6.20;99.90;;;;;;5034589;28;20048;-62
2022/01/18 12:07:33;;;;;;;30.35;7.50;;;6.20;99.90;;;;;;5037657;28;20099;-62
2022/01/18 12:10:00;;;;;;;38.17;8.48;;;6.20;99.90;;;;;;5038247;28;20048;-62
2022/01/18 12:12:41;;;;;;;37.05;8.60;;;6.30;99.90;;;;;;5035214;28;20033;-62
2022/01/18 12:15:15;;;;;;;35.17;8.80;;;6.30;99.90;;;;;;5030087;28;20038;-62
2022/01/18 12:17:51;;;;;;;37.55;9.35;;;6.20;99.90;;;;;;5031343;28;20064;-61
2022/01/18 12:20:35;;;;;;;35.30;9.85;;;6.30;99.90;;;;;;5032859;28;20409;-62
2022/01/18 12:23:05;;;;;;;38.67;10.82;;;6.30;99.90;;;;;;5035615;28;20041;-61
2022/01/18 12:25:35;;;;;;;37.53;10.63;;;6.30;99.90;;;;;;5029471;28;20121;-62
2022/01/18 12:28:46;;;;;;;46.20;11.20;;;6.30;99.90;;;;;;5037845;28;20041;-62
2022/01/18 12:34:30;;;;;;;39.85;9.27;;;6.40;99.90;;;;;;5036663;28;20095;-62
2022/01/18 12:37:08;;;;;;;37.03;10.25;;;6.40;99.90;;;;;;5029342;28;20040;-62
2022/01/18 12:39:55;;;;;;;46.92;10.73;;;6.40;99.90;;;;;;5035818;28;20114;-61
2022/01/18 12:45:06;;;;;;;53.38;12.95;;;6.50;99.90;;;;;;5034779;28;20050;-63
2022/01/18 12:47:36;;;;;;;46.30;12.15;;;6.50;99.90;;;;;;5035694;28;20125;-62
2022/01/18 12:50:08;;;;;;;42.05;12.15;;;6.50;99.90;;;;;;5034052;28;20033;-62
2022/01/18 12:52:51;;;;;;;36.25;11.35;;;6.40;99.90;;;;;;5030316;28;20108;-62
2022/01/18 12:55:45;;;;;;;42.28;11.57;;;6.50;99.90;;;;;;5036090;28;20397;-63
2022/01/18 12:58:19;;;;;;;47.40;12.45;;;6.50;99.90;;;;;;5037477;28;20163;-62
2022/01/18 13:00:50;;;;;;;36.33;11.05;;;6.50;99.90;;;;;;5037510;28;20036;-62
2022/01/18 13:03:29;;;;;;;47.42;11.88;;;6.50;99.90;;;;;;5031715;28;20627;-62
2022/01/18 13:05:58;;;;;;;47.20;14.30;;;6.60;99.90;;;;;;5031233;28;20401;-62
2022/01/18 13:08:29;;;;;;;47.17;11.70;;;6.60;99.90;;;;;;5036434;28;20032;-64
2022/01/18 13:10:55;;;;;;;41.60;10.80;;;6.60;99.90;;;;;;5031388;28;20032;-61
2022/01/18 13:13:29;;;;;;;47.88;10.43;;;6.60;99.90;;;;;;5028368;28;20143;-61
2022/01/18 13:26:54;;;;;;;39.42;10.80;;;6.90;99.90;;;;;;5028861;28;20053;-61
2022/01/18 13:29:28;;;;;;;40.55;12.32;;;6.90;99.90;;;;;;5033182;28;20478;-62
2022/01/18 13:32:26;;;;;;;44.53;11.63;;;6.90;99.90;;;;;;5030048;28;20049;-62
2022/01/18 13:34:55;;;;;;;35.28;11.77;;;7.00;99.90;;;;;;5029389;28;20095;-61
2022/01/18 13:37:26;;;;;;;28.27;10.70;;;7.00;99.90;;;;;;5032989;28;20108;-61
2022/01/18 13:39:55;;;;;;;41.63;9.40;;;7.00;99.90;;;;;;5032191;28;20029;-62
2022/01/18 13:42:33;;;;;;;34.97;9.23;;;7.00;99.90;;;;;;5034961;28;21980;-62
2022/01/18 13:45:11;;;;;;;30.58;9.27;;;7.00;99.90;;;;;;5032524;28;20044;-61
2022/01/18 13:47:58;;;;;;;33.00;9.52;;;7.10;99.90;;;;;;5031156;28;20532;-61
2022/01/18 13:50:39;;;;;;;35.08;12.20;;;7.10;99.90;;;;;;5027445;28;20522;-62
2022/01/18 13:53:05;;;;;;;;;;;7.20;99.90;;;;;;5034408;28;20041;-62
2022/01/18 13:55:33;;;;;;;34.35;9.88;;;7.20;99.90;;;;;;5025238;28;19917;-62
2022/01/18 13:58:00;;;;;;;30.17;8.32;;;7.10;99.90;;;;;;5033352;28;20440;-61
2022/01/18 14:00:28;;;;;;;39.13;8.23;;;7.10;99.90;;;;;;5028772;28;20030;-62
2022/01/18 14:02:55;;;;;;;29.35;8.73;;;7.10;99.90;;;;;;5032933;28;20029;-62
2022/01/18 14:05:23;;;;;;;33.72;8.25;;;7.10;99.90;;;;;;5027527;28;20035;-62
2022/01/18 14:07:49;;;;;;;35.25;9.55;;;7.10;99.90;;;;;;5029119;28;20033;-62
2022/01/18 14:10:20;;;;;;;33.72;9.02;;;7.10;99.90;;;;;;5028543;28;20116;-62
2022/01/18 14:12:46;;;;;;;26.60;8.13;;;7.00;99.90;;;;;;5033280;28;20572;-62
2022/01/18 14:15:11;;;;;;;33.95;8.93;;;7.10;99.90;;;;;;5029851;28;20043;-61
2022/01/18 14:17:38;;;;;;;31.95;8.15;;;7.10;99.90;;;;;;5028029;28;20096;-61
2022/01/18 14:20:08;;;;;;;23.73;7.60;;;7.10;99.90;;;;;;5029055;28;20076;-61